sensor_id;sensor_type;location;lat;lon;timestamp;pressure;altitude;pressure_sealevel;temperature;humidity
26859;BME280;14429;48.346;16.338;2023-06-22T00:00:07;100020.28;;;28.46;47.13
26859;BME280;14429;48.346;16.338;2023-06-22T00:02:32;100018.78;;;28.44;47.38
26859;BME280;14429;48.346;16.338;2023-06-22T00:04:58;100011.78;;;28.29;48.08
26859;BME280;14429;48.346;16.338;2023-06-22T00:07:25;100007.78;;;26.99;55.19
26859;BME280;14429;48.346;16.338;2023-06-22T00:09:50;100006.88;;;27.53;50.47
26859;BME280;14429;48.346;16.338;2023-06-22T00:12:15;100010.00;;;27.90;49.28
26859;BME280;14429;48.346;16.338;2023-06-22T00:14:41;100022.50;;;28.05;48.41
26859;BME280;14429;48.346;16.338;2023-06-22T00:17:06;100021.66;;;28.04;48.68
26859;BME280;14429;48.346;16.338;2023-06-22T00:19:32;100016.13;;;27.12;53.56
26859;BME280;14429;48.346;16.338;2023-06-22T00:21:57;100013.22;;;27.53;50.70
26859;BME280;14429;48.346;16.338;2023-06-22T00:24:24;100009.91;;;27.77;49.52
26859;BME280;14429;48.346;16.338;2023-06-22T00:26:49;99998.38;;;27.88;49.12
26859;BME280;14429;48.346;16.338;2023-06-22T00:29:15;100001.50;;;27.85;48.95
26859;BME280;14429;48.346;16.338;2023-06-22T00:31:40;99999.66;;;27.91;48.91
26859;BME280;14429;48.346;16.338;2023-06-22T00:34:06;99997.56;;;27.93;48.71
26859;BME280;14429;48.346;16.338;2023-06-22T00:36:31;99986.59;;;27.93;49.13
26859;BME280;14429;48.346;16.338;2023-06-22T00:38:56;99982.97;;;27.40;51.95
26859;BME280;14429;48.346;16.338;2023-06-22T00:41:23;99992.66;;;26.49;55.77
26859;BME280;14429;48.346;16.338;2023-06-22T00:43:49;99989.75;;;26.78;53.43
26859;BME280;14429;48.346;16.338;2023-06-22T00:46:14;99986.88;;;27.19;51.21
26859;BME280;14429;48.346;16.338;2023-06-22T00:48:40;99979.25;;;27.54;49.90
26859;BME280;14429;48.346;16.338;2023-06-22T00:51:06;99988.59;;;27.72;49.37
26859;BME280;14429;48.346;16.338;2023-06-22T00:53:31;99986.31;;;27.82;49.39
26859;BME280;14429;48.346;16.338;2023-06-22T00:55:57;99987.00;;;27.90;48.86
26859;BME280;14429;48.346;16.338;2023-06-22T00:58:24;99991.16;;;27.80;49.25
26859;BME280;14429;48.346;16.338;2023-06-22T01:00:49;99996.56;;;26.88;53.78
26859;BME280;14429;48.346;16.338;2023-06-22T01:03:14;99991.34;;;26.25;56.11
26859;BME280;14429;48.346;16.338;2023-06-22T01:05:40;99993.84;;;26.20;55.27
26859;BME280;14429;48.346;16.338;2023-06-22T01:08:14;99995.34;;;25.87;56.46
26859;BME280;14429;48.346;16.338;2023-06-22T01:10:44;99985.72;;;26.53;53.64
26859;BME280;14429;48.346;16.338;2023-06-22T01:13:18;99984.84;;;27.00;51.68
26859;BME280;14429;48.346;16.338;2023-06-22T01:15:51;99982.34;;;27.05;51.79
26859;BME280;14429;48.346;16.338;2023-06-22T01:18:20;99979.97;;;27.29;50.68
26859;BME280;14429;48.346;16.338;2023-06-22T01:20:48;99976.28;;;27.49;50.03
26859;BME280;14429;48.346;16.338;2023-06-22T01:23:24;99981.41;;;27.65;49.75
26859;BME280;14429;48.346;16.338;2023-06-22T01:26:01;99972.91;;;27.54;49.83
26859;BME280;14429;48.346;16.338;2023-06-22T01:28:41;99989.44;;;27.73;49.25
26859;BME280;14429;48.346;16.338;2023-06-22T01:31:08;99985.25;;;27.83;48.92
26859;BME280;14429;48.346;16.338;2023-06-22T01:33:39;99981.03;;;27.81;49.20
26859;BME280;14429;48.346;16.338;2023-06-22T01:36:06;99980.41;;;27.85;48.99
26859;BME280;14429;48.346;16.338;2023-06-22T01:38:32;99981.28;;;27.92;48.96
26859;BME280;14429;48.346;16.338;2023-06-22T01:40:59;99985.53;;;27.94;48.66
26859;BME280;14429;48.346;16.338;2023-06-22T01:43:26;99986.81;;;27.98;48.58
26859;BME280;14429;48.346;16.338;2023-06-22T01:45:54;99989.56;;;27.98;48.34
26859;BME280;14429;48.346;16.338;2023-06-22T01:48:21;99987.03;;;27.97;48.75
26859;BME280;14429;48.346;16.338;2023-06-22T01:50:47;99991.22;;;27.99;48.60
26859;BME280;14429;48.346;16.338;2023-06-22T01:53:13;99975.63;;;27.93;48.48
26859;BME280;14429;48.346;16.338;2023-06-22T01:55:38;99975.53;;;27.81;48.90
26859;BME280;14429;48.346;16.338;2023-06-22T01:58:03;99973.81;;;27.73;49.20
26859;BME280;14429;48.346;16.338;2023-06-22T02:00:32;99982.09;;;27.80;49.12
26859;BME280;14429;48.346;16.338;2023-06-22T02:03:03;99968.88;;;27.90;49.06
26859;BME280;14429;48.346;16.338;2023-06-22T02:05:33;99964.97;;;27.78;48.91
26859;BME280;14429;48.346;16.338;2023-06-22T02:08:02;99958.66;;;27.84;49.01
26859;BME280;14429;48.346;16.338;2023-06-22T02:10:31;99966.75;;;27.91;48.64
26859;BME280;14429;48.346;16.338;2023-06-22T02:12:57;99970.13;;;27.93;48.68
26859;BME280;14429;48.346;16.338;2023-06-22T02:15:24;99973.50;;;27.95;48.43
26859;BME280;14429;48.346;16.338;2023-06-22T02:17:50;99973.56;;;27.16;50.86
26859;BME280;14429;48.346;16.338;2023-06-22T02:20:17;99969.75;;;27.17;50.54
26859;BME280;14429;48.346;16.338;2023-06-22T02:22:43;99975.63;;;27.14;51.13
26859;BME280;14429;48.346;16.338;2023-06-22T02:25:08;99960.31;;;27.26;50.33
26859;BME280;14429;48.346;16.338;2023-06-22T02:27:34;99967.41;;;27.41;50.14
26859;BME280;14429;48.346;16.338;2023-06-22T02:29:59;99971.81;;;27.42;50.07
26859;BME280;14429;48.346;16.338;2023-06-22T02:32:24;99962.38;;;27.57;49.58
26859;BME280;14429;48.346;16.338;2023-06-22T02:34:50;99955.25;;;27.69;49.17
26859;BME280;14429;48.346;16.338;2023-06-22T02:37:17;99959.06;;;27.68;49.25
26859;BME280;14429;48.346;16.338;2023-06-22T02:39:42;99963.69;;;27.74;49.01
26859;BME280;14429;48.346;16.338;2023-06-22T02:42:08;99953.19;;;27.84;48.58
26859;BME280;14429;48.346;16.338;2023-06-22T02:44:33;99953.19;;;27.84;48.50
26859;BME280;14429;48.346;16.338;2023-06-22T02:46:58;99958.66;;;27.84;48.79
26859;BME280;14429;48.346;16.338;2023-06-22T02:49:24;99964.16;;;27.84;48.64
26859;BME280;14429;48.346;16.338;2023-06-22T02:51:49;99966.91;;;27.84;48.93
26859;BME280;14429;48.346;16.338;2023-06-22T02:54:16;99966.25;;;27.82;48.65
26859;BME280;14429;48.346;16.338;2023-06-22T02:56:42;99974.03;;;27.72;49.23
26859;BME280;14429;48.346;16.338;2023-06-22T02:59:07;99964.97;;;27.71;49.11
26859;BME280;14429;48.346;16.338;2023-06-22T03:01:33;99964.56;;;27.74;48.72
26859;BME280;14429;48.346;16.338;2023-06-22T03:03:58;99963.69;;;27.67;49.11
26859;BME280;14429;48.346;16.338;2023-06-22T03:06:24;99977.41;;;27.67;49.20
26859;BME280;14429;48.346;16.338;2023-06-22T03:08:49;99983.53;;;27.69;49.14
26859;BME280;14429;48.346;16.338;2023-06-22T03:11:16;99968.56;;;27.72;49.12
26859;BME280;14429;48.346;16.338;2023-06-22T03:13:41;99962.44;;;27.76;48.86
26859;BME280;14429;48.346;16.338;2023-06-22T03:16:07;99972.16;;;27.79;48.72
26859;BME280;14429;48.346;16.338;2023-06-22T03:18:32;99962.41;;;27.70;48.80
26859;BME280;14429;48.346;16.338;2023-06-22T03:20:58;99981.56;;;26.36;52.62
26859;BME280;14429;48.346;16.338;2023-06-22T03:23:23;99973.41;;;26.90;51.25
26859;BME280;14429;48.346;16.338;2023-06-22T03:25:48;99980.78;;;27.23;50.32
26859;BME280;14429;48.346;16.338;2023-06-22T03:28:15;99971.59;;;27.43;49.55
26859;BME280;14429;48.346;16.338;2023-06-22T03:30:41;99969.38;;;27.20;50.33
26859;BME280;14429;48.346;16.338;2023-06-22T03:33:06;99969.09;;;27.08;50.45
26859;BME280;14429;48.346;16.338;2023-06-22T03:35:31;99982.88;;;27.28;50.07
26859;BME280;14429;48.346;16.338;2023-06-22T03:37:57;99981.94;;;27.41;49.83
26859;BME280;14429;48.346;16.338;2023-06-22T03:40:22;99981.75;;;27.49;49.46
26859;BME280;14429;48.346;16.338;2023-06-22T03:42:48;99971.69;;;27.56;49.01
26859;BME280;14429;48.346;16.338;2023-06-22T03:45:15;99975.47;;;27.62;49.07
26859;BME280;14429;48.346;16.338;2023-06-22T03:47:40;99981.78;;;27.56;49.41
26859;BME280;14429;48.346;16.338;2023-06-22T03:50:06;99967.69;;;27.19;50.24
26859;BME280;14429;48.346;16.338;2023-06-22T03:52:32;99967.03;;;27.17;50.27
26859;BME280;14429;48.346;16.338;2023-06-22T03:54:57;99972.00;;;27.40;49.58
26859;BME280;14429;48.346;16.338;2023-06-22T03:57:23;99975.88;;;27.52;49.36
26859;BME280;14429;48.346;16.338;2023-06-22T03:59:48;99978.44;;;27.60;49.08
26859;BME280;14429;48.346;16.338;2023-06-22T04:02:15;99959.69;;;27.63;48.85
26859;BME280;14429;48.346;16.338;2023-06-22T04:04:40;99964.94;;;27.65;48.72
26859;BME280;14429;48.346;16.338;2023-06-22T04:07:06;99962.84;;;27.67;48.81
26859;BME280;14429;48.346;16.338;2023-06-22T04:09:31;99962.84;;;27.67;48.73
26859;BME280;14429;48.346;16.338;2023-06-22T04:11:56;99970.41;;;27.52;48.90
26859;BME280;14429;48.346;16.338;2023-06-22T04:14:22;99961.56;;;27.63;49.03
26859;BME280;14429;48.346;16.338;2023-06-22T04:16:47;99960.81;;;27.35;49.74
26859;BME280;14429;48.346;16.338;2023-06-22T04:19:14;99950.50;;;27.37;49.64
26859;BME280;14429;48.346;16.338;2023-06-22T04:21:39;99960.69;;;27.50;49.08
26859;BME280;14429;48.346;16.338;2023-06-22T04:24:06;99962.19;;;27.52;49.43
26859;BME280;14429;48.346;16.338;2023-06-22T04:26:31;99962.00;;;27.60;49.18
26859;BME280;14429;48.346;16.338;2023-06-22T04:28:56;99962.00;;;27.73;48.62
26859;BME280;14429;48.346;16.338;2023-06-22T04:31:22;99964.78;;;27.79;48.27
26859;BME280;14429;48.346;16.338;2023-06-22T04:33:47;99957.41;;;27.80;49.19
26859;BME280;14429;48.346;16.338;2023-06-22T04:36:14;99959.47;;;27.65;51.21
26859;BME280;14429;48.346;16.338;2023-06-22T04:38:39;99968.88;;;26.77;54.34
26859;BME280;14429;48.346;16.338;2023-06-22T04:41:05;99970.97;;;27.41;49.93
26859;BME280;14429;48.346;16.338;2023-06-22T04:43:30;99975.09;;;27.71;48.94
26859;BME280;14429;48.346;16.338;2023-06-22T04:45:56;99976.81;;;27.85;49.62
26859;BME280;14429;48.346;16.338;2023-06-22T04:48:21;99973.56;;;27.62;52.30
26859;BME280;14429;48.346;16.338;2023-06-22T04:50:47;99983.13;;;27.72;49.31
26859;BME280;14429;48.346;16.338;2023-06-22T04:53:13;99979.84;;;27.90;49.24
26859;BME280;14429;48.346;16.338;2023-06-22T04:55:39;99978.06;;;27.76;52.29
26859;BME280;14429;48.346;16.338;2023-06-22T04:58:05;99972.34;;;27.64;52.49
26859;BME280;14429;48.346;16.338;2023-06-22T05:00:31;99981.53;;;27.97;48.29
26859;BME280;14429;48.346;16.338;2023-06-22T05:02:56;99983.03;;;28.12;47.66
26859;BME280;14429;48.346;16.338;2023-06-22T05:05:22;99982.84;;;28.20;47.45
26859;BME280;14429;48.346;16.338;2023-06-22T05:07:49;99980.72;;;28.22;48.97
26859;BME280;14429;48.346;16.338;2023-06-22T05:10:16;99969.53;;;28.30;46.98
26859;BME280;14429;48.346;16.338;2023-06-22T05:12:42;99970.19;;;28.38;47.05
26859;BME280;14429;48.346;16.338;2023-06-22T05:15:08;99979.47;;;28.43;46.98
26859;BME280;14429;48.346;16.338;2023-06-22T05:17:34;99980.31;;;28.31;49.91
26859;BME280;14429;48.346;16.338;2023-06-22T05:19:59;99989.22;;;28.52;47.78
26859;BME280;14429;48.346;16.338;2023-06-22T05:22:25;99993.44;;;28.61;46.41
26859;BME280;14429;48.346;16.338;2023-06-22T05:24:50;99984.16;;;28.69;45.94
26859;BME280;14429;48.346;16.338;2023-06-22T05:27:17;99986.03;;;28.43;46.51
26859;BME280;14429;48.346;16.338;2023-06-22T05:29:42;99986.06;;;28.55;46.09
26859;BME280;14429;48.346;16.338;2023-06-22T05:32:08;99986.25;;;28.67;46.32
26859;BME280;14429;48.346;16.338;2023-06-22T05:34:34;99978.66;;;28.62;46.42
26859;BME280;14429;48.346;16.338;2023-06-22T05:36:59;99971.91;;;28.58;46.41
26859;BME280;14429;48.346;16.338;2023-06-22T05:39:25;99971.88;;;28.71;47.51
26859;BME280;14429;48.346;16.338;2023-06-22T05:41:50;99958.75;;;28.98;47.11
26859;BME280;14429;48.346;16.338;2023-06-22T05:44:17;99953.06;;;28.94;45.25
26859;BME280;14429;48.346;16.338;2023-06-22T05:46:43;99949.44;;;28.99;45.44
26859;BME280;14429;48.346;16.338;2023-06-22T05:49:09;99946.53;;;29.01;45.42
26859;BME280;14429;48.346;16.338;2023-06-22T05:51:34;99939.00;;;29.33;48.31
26859;BME280;14429;48.346;16.338;2023-06-22T05:53:59;99939.66;;;29.23;44.81
26859;BME280;14429;48.346;16.338;2023-06-22T05:56:25;99954.66;;;29.33;44.91
26859;BME280;14429;48.346;16.338;2023-06-22T05:58:50;99956.63;;;29.13;44.84
26859;BME280;14429;48.346;16.338;2023-06-22T06:01:17;99966.56;;;29.08;45.00
26859;BME280;14429;48.346;16.338;2023-06-22T06:03:42;99969.47;;;29.26;45.91
26859;BME280;14429;48.346;16.338;2023-06-22T06:06:08;99965.63;;;29.46;44.75
26859;BME280;14429;48.346;16.338;2023-06-22T06:08:33;99970.91;;;29.41;44.40
26859;BME280;14429;48.346;16.338;2023-06-22T06:10:59;99967.00;;;29.67;46.29
26859;BME280;14429;48.346;16.338;2023-06-22T06:13:24;99971.28;;;29.51;44.33
26859;BME280;14429;48.346;16.338;2023-06-22T06:15:50;99965.28;;;30.09;46.61
26859;BME280;14429;48.346;16.338;2023-06-22T06:18:17;99968.00;;;30.16;45.22
26859;BME280;14429;48.346;16.338;2023-06-22T06:20:42;99975.38;;;29.85;45.18
26859;BME280;14429;48.346;16.338;2023-06-22T06:23:08;99971.13;;;29.89;43.77
26859;BME280;14429;48.346;16.338;2023-06-22T06:25:33;99964.75;;;29.95;43.11
26859;BME280;14429;48.346;16.338;2023-06-22T06:27:59;99970.81;;;29.73;43.95
26859;BME280;14429;48.346;16.338;2023-06-22T06:30:24;99970.03;;;29.96;44.50
26859;BME280;14429;48.346;16.338;2023-06-22T06:32:50;99959.91;;;30.75;45.49
26859;BME280;14429;48.346;16.338;2023-06-22T06:35:17;99963.06;;;30.55;42.46
26859;BME280;14429;48.346;16.338;2023-06-22T06:37:43;99957.41;;;30.19;42.48
26859;BME280;14429;48.346;16.338;2023-06-22T06:40:10;99965.94;;;30.11;42.93
26859;BME280;14429;48.346;16.338;2023-06-22T06:42:37;99951.81;;;30.32;43.01
26859;BME280;14429;48.346;16.338;2023-06-22T06:45:03;99944.47;;;30.50;43.58
26859;BME280;14429;48.346;16.338;2023-06-22T06:47:28;99951.53;;;30.88;43.37
26859;BME280;14429;48.346;16.338;2023-06-22T06:49:54;99952.16;;;31.08;43.64
26859;BME280;14429;48.346;16.338;2023-06-22T06:52:21;99952.22;;;31.01;42.48
26859;BME280;14429;48.346;16.338;2023-06-22T06:54:46;99949.28;;;31.20;41.71
26859;BME280;14429;48.346;16.338;2023-06-22T06:57:11;99953.50;;;31.23;42.58
26859;BME280;14429;48.346;16.338;2023-06-22T06:59:37;99949.31;;;30.96;42.54
26859;BME280;14429;48.346;16.338;2023-06-22T07:02:03;99946.94;;;31.00;41.18
26859;BME280;14429;48.346;16.338;2023-06-22T07:04:28;99953.38;;;30.94;43.19
26859;BME280;14429;48.346;16.338;2023-06-22T07:06:54;99956.50;;;30.97;44.25
26859;BME280;14429;48.346;16.338;2023-06-22T07:09:20;99945.66;;;31.02;43.20
26859;BME280;14429;48.346;16.338;2023-06-22T07:11:46;99938.88;;;30.81;42.43
26859;BME280;14429;48.346;16.338;2023-06-22T07:14:11;99937.88;;;30.75;42.06
26859;BME280;14429;48.346;16.338;2023-06-22T07:16:37;99948.22;;;30.56;45.51
26859;BME280;14429;48.346;16.338;2023-06-22T07:19:02;99949.47;;;30.84;44.07
26859;BME280;14429;48.346;16.338;2023-06-22T07:21:28;99953.47;;;30.63;45.13
26859;BME280;14429;48.346;16.338;2023-06-22T07:23:53;99951.19;;;30.54;46.98
26859;BME280;14429;48.346;16.338;2023-06-22T07:26:20;99950.38;;;30.23;44.18
26859;BME280;14429;48.346;16.338;2023-06-22T07:28:45;99944.88;;;30.23;48.32
26859;BME280;14429;48.346;16.338;2023-06-22T07:31:11;99952.66;;;30.33;48.09
26859;BME280;14429;48.346;16.338;2023-06-22T07:33:36;99942.88;;;30.06;48.85
26859;BME280;14429;48.346;16.338;2023-06-22T07:36:02;99948.13;;;29.77;50.06
26859;BME280;14429;48.346;16.338;2023-06-22T07:38:27;99943.69;;;29.76;47.47
26859;BME280;14429;48.346;16.338;2023-06-22T07:40:53;99948.88;;;29.53;48.92
26859;BME280;14429;48.346;16.338;2023-06-22T07:43:20;99939.34;;;29.50;46.37
26859;BME280;14429;48.346;16.338;2023-06-22T07:45:48;99944.34;;;29.16;48.96
26859;BME280;14429;48.346;16.338;2023-06-22T07:48:14;99942.72;;;29.02;53.25
26859;BME280;14429;48.346;16.338;2023-06-22T07:50:39;99944.34;;;28.97;50.57
26859;BME280;14429;48.346;16.338;2023-06-22T07:53:04;99941.00;;;28.95;51.05
26859;BME280;14429;48.346;16.338;2023-06-22T07:55:30;99939.94;;;28.96;48.55
26859;BME280;14429;48.346;16.338;2023-06-22T07:57:56;99942.06;;;28.94;52.11
26859;BME280;14429;48.346;16.338;2023-06-22T08:00:22;99934.66;;;29.00;50.84
26859;BME280;14429;48.346;16.338;2023-06-22T08:02:48;99942.50;;;28.91;51.90
26859;BME280;14429;48.346;16.338;2023-06-22T08:05:14;99937.41;;;28.88;52.05
26859;BME280;14429;48.346;16.338;2023-06-22T08:07:40;99938.25;;;28.82;48.44
26859;BME280;14429;48.346;16.338;2023-06-22T08:10:08;99936.59;;;28.74;48.97
26859;BME280;14429;48.346;16.338;2023-06-22T08:12:35;99938.47;;;28.87;51.91
26859;BME280;14429;48.346;16.338;2023-06-22T08:15:00;99941.84;;;28.89;52.60
26859;BME280;14429;48.346;16.338;2023-06-22T08:17:27;99939.56;;;28.79;51.32
26859;BME280;14429;48.346;16.338;2023-06-22T08:19:53;99942.72;;;28.70;51.14
26859;BME280;14429;48.346;16.338;2023-06-22T08:22:18;99947.38;;;28.82;49.12
26859;BME280;14429;48.346;16.338;2023-06-22T08:24:44;99951.16;;;28.88;50.88
26859;BME280;14429;48.346;16.338;2023-06-22T08:27:09;99948.84;;;28.78;50.40
26859;BME280;14429;48.346;16.338;2023-06-22T08:29:35;99945.66;;;28.88;50.23
26859;BME280;14429;48.346;16.338;2023-06-22T08:32:00;99938.72;;;28.66;51.57
26859;BME280;14429;48.346;16.338;2023-06-22T08:34:27;99946.09;;;28.91;51.18
26859;BME280;14429;48.346;16.338;2023-06-22T08:36:52;99941.84;;;28.89;50.54
26859;BME280;14429;48.346;16.338;2023-06-22T08:39:18;99939.75;;;28.91;50.07
26859;BME280;14429;48.346;16.338;2023-06-22T08:41:44;99941.44;;;28.92;50.90
26859;BME280;14429;48.346;16.338;2023-06-22T08:44:09;99941.84;;;28.89;51.04
26859;BME280;14429;48.346;16.338;2023-06-22T08:46:34;99930.00;;;28.88;51.30
26859;BME280;14429;48.346;16.338;2023-06-22T08:49:00;99932.94;;;28.99;50.71
26859;BME280;14429;48.346;16.338;2023-06-22T08:51:27;99930.00;;;28.95;48.98
26859;BME280;14429;48.346;16.338;2023-06-22T08:53:52;99930.91;;;28.82;51.73
26859;BME280;14429;48.346;16.338;2023-06-22T08:56:17;99931.72;;;28.83;49.26
26859;BME280;14429;48.346;16.338;2023-06-22T08:58:43;99925.78;;;28.92;51.91
26859;BME280;14429;48.346;16.338;2023-06-22T09:01:08;99921.09;;;28.99;51.28
26859;BME280;14429;48.346;16.338;2023-06-22T09:03:34;99924.91;;;29.04;50.49
26859;BME280;14429;48.346;16.338;2023-06-22T09:05:59;99911.63;;;28.95;51.06
26859;BME280;14429;48.346;16.338;2023-06-22T09:08:26;99911.59;;;29.08;49.92
26859;BME280;14429;48.346;16.338;2023-06-22T09:10:51;99910.56;;;29.02;51.17
26859;BME280;14429;48.346;16.338;2023-06-22T09:13:17;99922.41;;;29.03;51.02
26859;BME280;14429;48.346;16.338;2023-06-22T09:15:42;99921.13;;;29.05;48.11
26859;BME280;14429;48.346;16.338;2023-06-22T09:18:10;99913.50;;;29.14;51.15
26859;BME280;14429;48.346;16.338;2023-06-22T09:20:35;99912.00;;;29.18;49.98
26859;BME280;14429;48.346;16.338;2023-06-22T09:23:01;99911.75;;;29.26;49.70
26859;BME280;14429;48.346;16.338;2023-06-22T09:25:27;99911.31;;;29.22;49.10
26859;BME280;14429;48.346;16.338;2023-06-22T09:27:53;99907.31;;;29.25;47.83
26859;BME280;14429;48.346;16.338;2023-06-22T09:30:18;99907.66;;;29.41;49.23
26859;BME280;14429;48.346;16.338;2023-06-22T09:32:44;99908.97;;;29.32;49.36
26859;BME280;14429;48.346;16.338;2023-06-22T09:35:09;99907.97;;;29.20;47.31
26859;BME280;14429;48.346;16.338;2023-06-22T09:37:35;99895.25;;;29.26;47.19
26859;BME280;14429;48.346;16.338;2023-06-22T09:40:00;99891.22;;;29.28;47.93
26859;BME280;14429;48.346;16.338;2023-06-22T09:42:27;99896.22;;;29.44;47.43
26859;BME280;14429;48.346;16.338;2023-06-22T09:44:52;99900.28;;;29.35;47.76
26859;BME280;14429;48.346;16.338;2023-06-22T09:47:18;99890.19;;;29.23;47.33
26859;BME280;14429;48.346;16.338;2023-06-22T09:49:43;99895.56;;;29.42;48.06
26859;BME280;14429;48.346;16.338;2023-06-22T09:52:09;99881.25;;;29.33;47.27
26859;BME280;14429;48.346;16.338;2023-06-22T09:54:34;99895.09;;;29.14;46.98
26859;BME280;14429;48.346;16.338;2023-06-22T09:56:59;99892.13;;;29.65;47.12
26859;BME280;14429;48.346;16.338;2023-06-22T09:59:26;99887.47;;;29.59;47.69
26859;BME280;14429;48.346;16.338;2023-06-22T10:01:52;99886.72;;;29.40;46.46
26859;BME280;14429;48.346;16.338;2023-06-22T10:04:17;99889.22;;;29.48;46.74
26859;BME280;14429;48.346;16.338;2023-06-22T10:06:42;99886.41;;;29.17;46.70
26859;BME280;14429;48.346;16.338;2023-06-22T10:09:08;99884.44;;;29.30;46.72
26859;BME280;14429;48.346;16.338;2023-06-22T10:11:33;99880.69;;;29.55;47.89
26859;BME280;14429;48.346;16.338;2023-06-22T10:13:59;99883.72;;;29.48;47.43
26859;BME280;14429;48.346;16.338;2023-06-22T10:16:30;99886.63;;;29.59;46.07
26859;BME280;14429;48.346;16.338;2023-06-22T10:18:56;99877.28;;;29.66;46.73
26859;BME280;14429;48.346;16.338;2023-06-22T10:21:21;99885.81;;;29.58;46.64
26859;BME280;14429;48.346;16.338;2023-06-22T10:23:46;99869.28;;;29.58;46.13
26859;BME280;14429;48.346;16.338;2023-06-22T10:26:12;99861.41;;;29.68;46.17
26859;BME280;14429;48.346;16.338;2023-06-22T10:28:37;99864.16;;;29.68;47.56
26859;BME280;14429;48.346;16.338;2023-06-22T10:31:03;99865.94;;;29.87;45.64
26859;BME280;14429;48.346;16.338;2023-06-22T10:33:29;99879.09;;;30.09;45.01
26859;BME280;14429;48.346;16.338;2023-06-22T10:35:55;99874.25;;;30.05;45.80
26859;BME280;14429;48.346;16.338;2023-06-22T10:38:20;99870.25;;;30.01;45.10
26859;BME280;14429;48.346;16.338;2023-06-22T10:40:46;99858.00;;;29.97;44.67
26859;BME280;14429;48.346;16.338;2023-06-22T10:43:11;99866.91;;;29.99;44.73
26859;BME280;14429;48.346;16.338;2023-06-22T10:45:37;99866.81;;;30.11;45.76
26859;BME280;14429;48.346;16.338;2023-06-22T10:48:02;99869.28;;;30.19;45.09
26859;BME280;14429;48.346;16.338;2023-06-22T10:50:29;99858.50;;;30.18;44.99
26859;BME280;14429;48.346;16.338;2023-06-22T10:52:54;99862.53;;;30.15;45.13
26859;BME280;14429;48.346;16.338;2023-06-22T10:55:20;99844.97;;;30.16;44.32
26859;BME280;14429;48.346;16.338;2023-06-22T10:57:45;99847.16;;;30.32;45.82
26859;BME280;14429;48.346;16.338;2023-06-22T11:00:12;99853.81;;;30.42;44.95
26859;BME280;14429;48.346;16.338;2023-06-22T11:02:38;99835.16;;;30.44;44.17
26859;BME280;14429;48.346;16.338;2023-06-22T11:05:04;99824.28;;;30.49;43.63
26859;BME280;14429;48.346;16.338;2023-06-22T11:07:31;99823.22;;;30.50;44.18
26859;BME280;14429;48.346;16.338;2023-06-22T11:09:56;99824.81;;;30.40;44.45
26859;BME280;14429;48.346;16.338;2023-06-22T11:12:22;99821.22;;;30.39;44.12
26859;BME280;14429;48.346;16.338;2023-06-22T11:14:47;99813.34;;;30.43;45.29
26859;BME280;14429;48.346;16.338;2023-06-22T11:17:13;99814.78;;;30.45;45.25
26859;BME280;14429;48.346;16.338;2023-06-22T11:19:38;99810.25;;;30.33;45.16
26859;BME280;14429;48.346;16.338;2023-06-22T11:22:04;99807.53;;;30.51;44.75
26859;BME280;14429;48.346;16.338;2023-06-22T11:24:31;99806.91;;;30.49;45.05
26859;BME280;14429;48.346;16.338;2023-06-22T11:26:56;99812.69;;;30.83;44.59
26859;BME280;14429;48.346;16.338;2023-06-22T11:29:22;99808.75;;;30.55;43.96
26859;BME280;14429;48.346;16.338;2023-06-22T11:31:47;99799.78;;;30.41;44.36
26859;BME280;14429;48.346;16.338;2023-06-22T11:34:13;99800.72;;;30.53;44.90
26859;BME280;14429;48.346;16.338;2023-06-22T11:36:38;99806.97;;;30.66;43.55
26859;BME280;14429;48.346;16.338;2023-06-22T11:39:03;99799.28;;;30.68;43.47
26859;BME280;14429;48.346;16.338;2023-06-22T11:41:30;99798.97;;;30.59;44.84
26859;BME280;14429;48.346;16.338;2023-06-22T11:43:55;99802.03;;;30.51;43.86
26859;BME280;14429;48.346;16.338;2023-06-22T11:46:21;99803.38;;;30.42;43.66
26859;BME280;14429;48.346;16.338;2023-06-22T11:48:46;99802.03;;;30.51;43.53
26859;BME280;14429;48.346;16.338;2023-06-22T11:51:12;99796.13;;;30.47;43.30
26859;BME280;14429;48.346;16.338;2023-06-22T11:53:37;99800.31;;;30.50;43.97
26859;BME280;14429;48.346;16.338;2023-06-22T11:56:03;99792.06;;;30.50;43.96
26859;BME280;14429;48.346;16.338;2023-06-22T11:58:29;99793.78;;;30.68;44.04
26859;BME280;14429;48.346;16.338;2023-06-22T12:00:55;99787.28;;;30.81;44.53
26859;BME280;14429;48.346;16.338;2023-06-22T12:03:20;99800.25;;;30.56;44.38
26859;BME280;14429;48.346;16.338;2023-06-22T12:05:46;99789.00;;;30.40;44.05
26859;BME280;14429;48.346;16.338;2023-06-22T12:08:11;99796.41;;;30.63;44.32
26859;BME280;14429;48.346;16.338;2023-06-22T12:10:37;99796.78;;;30.67;43.87
26859;BME280;14429;48.346;16.338;2023-06-22T12:13:02;99793.47;;;30.94;43.31
26859;BME280;14429;48.346;16.338;2023-06-22T12:15:29;99776.78;;;30.71;42.93
26859;BME280;14429;48.346;16.338;2023-06-22T12:17:54;99788.25;;;31.04;42.68
26859;BME280;14429;48.346;16.338;2023-06-22T12:20:20;99790.34;;;30.31;44.09
26859;BME280;14429;48.346;16.338;2023-06-22T12:22:45;99783.06;;;30.78;43.43
26859;BME280;14429;48.346;16.338;2023-06-22T12:25:11;99775.69;;;30.90;43.36
26859;BME280;14429;48.346;16.338;2023-06-22T12:27:36;99774.03;;;30.89;43.23
26859;BME280;14429;48.346;16.338;2023-06-22T12:30:03;99771.63;;;31.10;43.24
26859;BME280;14429;48.346;16.338;2023-06-22T12:32:30;99769.28;;;30.96;43.33
26859;BME280;14429;48.346;16.338;2023-06-22T12:34:56;99766.31;;;31.26;43.48
26859;BME280;14429;48.346;16.338;2023-06-22T12:37:22;99767.72;;;31.18;42.27
26859;BME280;14429;48.346;16.338;2023-06-22T12:39:47;99761.44;;;31.11;42.80
26859;BME280;14429;48.346;16.338;2023-06-22T12:42:13;99760.22;;;31.07;42.52